Time;durP1;ratioP1;P1;durP2;ratioP2;P2;SDS_P1;SDS_P2;PMS_P1;PMS_P2;Temp;Humidity;BMP_temperature;BMP_pressure;BME280_temperature;BME280_humidity;BME280_pressure;Samples;Min_cycle;Max_cycle;Signal;HPM_P1;HPM_P2
2022/05/07 00:00:44;;;;;;;;;;;;;;;12.82;67.14;95622.75;4974698;28;1042;-49
2022/05/07 00:03:10;;;;;;;;;;;;;;;12.89;67.15;95618.41;4973104;28;1054;-49
2022/05/07 00:05:38;;;;;;;;;;;;;;;12.95;67.36;95619.59;4974461;28;1026;-49
2022/05/07 00:08:05;;;;;;;;;;;;;;;13.01;67.04;95618.94;4974331;28;1046;-49
2022/05/07 00:10:32;;;;;;;;;;;;;;;13.03;67.23;95617.78;4974437;28;966;-48
2022/05/07 00:12:58;;;;;;;;;;;;;;;12.91;68.12;95618.25;4974537;28;967;-48
2022/05/07 00:15:24;;;;;;;;;;;;;;;12.84;68.48;95613.53;4974531;28;1017;-49
2022/05/07 00:18:03;;;;;;;;;;;;;;;12.78;68.92;95614.19;4974024;28;1916;-48
2022/05/07 00:20:30;;;;;;;;;;;;;;;12.81;68.66;95613.88;4974344;28;1025;-49
2022/05/07 00:22:56;;;;;;;;;;;;;;;12.93;68.18;95610.88;4974288;28;1050;-48
2022/05/07 00:25:23;;;;;;;;;;;;;;;12.99;68.39;95611.03;4973363;28;1207;-49
2022/05/07 00:27:49;;;;;;;;;;;;;;;13.08;67.55;95615.41;4954732;28;1236;-48
2022/05/07 00:30:15;;;;;;;;;;;;;;;13.23;67.55;95609.41;4970101;28;991;-48
2022/05/07 00:32:41;;;;;;;;;;;;;;;13.23;67.68;95614.78;4954997;28;818;-49
2022/05/07 00:35:10;;;;;;;;;;;;;;;13.12;68.22;95613.25;4955025;28;1012;-49
2022/05/07 00:37:37;;;;;;;;;;;;;;;13.15;68.60;95612.09;4955031;28;2001;-49
2022/05/07 00:40:03;;;;;;;;;;;;;;;13.17;68.32;95618.13;4954815;28;950;-48
2022/05/07 00:42:29;;;;;;;;;;;;;;;13.15;69.00;95612.09;4955077;28;1124;-49
2022/05/07 00:44:55;;;;;;;;;;;;;;;12.97;69.25;95613.03;4954671;29;975;-49
2022/05/07 00:47:26;;;;;;;;;;;;;;;12.98;69.09;95609.38;4954687;28;971;-48
2022/05/07 00:49:54;;;;;;;;;;;;;;;12.97;69.73;95610.38;4955025;28;1036;-48
2022/05/07 00:52:20;;;;;;;;;;;;;;;12.88;70.43;95614.03;4955020;28;1239;-48
2022/05/07 00:54:47;;;;;;;;;;;;;;;12.93;69.92;95614.38;4958161;29;1046;-49
2022/05/07 00:57:14;;;;;;;;;;;;;;;12.88;70.43;95617.56;4958653;28;1910;-49
2022/05/07 00:59:41;;;;;;;;;;;;;;;12.92;69.83;95615.41;4958431;28;1117;-48
2022/05/07 01:02:07;;;;;;;;;;;;;;;13.01;69.78;95618.94;4958304;28;1033;-49
2022/05/07 01:04:33;;;;;;;;;;;;;;;13.05;70.03;95610.41;4958092;28;1030;-48
2022/05/07 01:07:01;;;;;;;;;;;;;;;13.00;69.97;95617.28;4958543;29;997;-49
2022/05/07 01:09:27;;;;;;;;;;;;;;;12.99;70.78;95616.41;4958191;28;1192;-49
2022/05/07 01:11:54;;;;;;;;;;;;;;;12.98;70.48;95613.91;4958406;29;1027;-49
2022/05/07 01:14:20;;;;;;;;;;;;;;;12.95;70.93;95615.06;4958094;28;1009;-49
2022/05/07 01:16:46;;;;;;;;;;;;;;;12.98;70.85;95619.28;4958322;29;970;-49
2022/05/07 01:19:13;;;;;;;;;;;;;;;13.00;70.41;95611.91;4957612;29;1907;-48
2022/05/07 01:21:39;;;;;;;;;;;;;;;13.11;68.31;95621.47;4957949;28;1089;-49
2022/05/07 01:24:05;;;;;;;;;;;;;;;13.16;68.25;95619.97;4957761;28;1018;-48
2022/05/07 01:26:31;;;;;;;;;;;;;;;13.12;69.39;95623.16;4967707;28;1159;-49
2022/05/07 01:28:59;;;;;;;;;;;;;;;13.09;69.32;95622.47;4976978;28;1242;-48
2022/05/07 01:31:26;;;;;;;;;;;;;;;13.11;67.94;95625.00;4977434;28;1028;-48
2022/05/07 01:33:53;;;;;;;;;;;;;;;13.25;65.22;95618.13;4977257;28;1086;-48
2022/05/07 01:36:19;;;;;;;;;;;;;;;13.33;65.14;95618.16;4977009;28;1093;-48
2022/05/07 01:38:45;;;;;;;;;;;;;;;13.37;65.57;95624.88;4976851;28;1907;-48
2022/05/07 01:41:11;;;;;;;;;;;;;;;13.46;66.23;95626.56;4977223;28;955;-48
2022/05/07 01:43:38;;;;;;;;;;;;;;;13.34;65.09;95617.19;4976904;28;1041;-48
2022/05/07 01:48:09;;;;;;;;;;;;;;;13.33;64.64;95622.72;4976912;28;964;-48
2022/05/07 01:48:50;;;;;;;;;;;;;;;13.08;69.00;95622.66;4976531;28;1034;-48
2022/05/07 01:51:16;;;;;;;;;;;;;;;12.98;68.33;95619.28;4976733;28;1008;-48
2022/05/07 01:53:42;;;;;;;;;;;;;;;13.09;66.97;95624.34;4977082;28;963;-48
2022/05/07 01:56:08;;;;;;;;;;;;;;;13.15;66.50;95625.53;4976827;28;996;-48
2022/05/07 01:58:34;;;;;;;;;;;;;;;13.17;66.66;95620.81;4976668;28;1981;-48
2022/05/07 02:01:00;;;;;;;;;;;;;;;13.16;66.14;95628.00;4976707;28;1045;-48
2022/05/07 02:03:26;;;;;;;;;;;;;;;13.13;66.89;95624.81;4976579;28;1984;-48
2022/05/07 02:05:52;;;;;;;;;;;;;;;13.15;66.88;95623.66;4976263;28;1076;-48
2022/05/07 02:08:18;;;;;;;;;;;;;;;13.25;65.88;95620.81;4976436;28;1076;-48
2022/05/07 02:10:44;;;;;;;;;;;;;;;13.28;65.42;95625.88;4976238;28;1092;-48
2022/05/07 02:13:10;;;;;;;;;;;;;;;13.28;66.70;95631.25;4976386;28;1030;-48
2022/05/07 02:15:36;;;;;;;;;;;;;;;13.13;67.81;95625.69;4975957;28;1018;-48
2022/05/07 02:18:02;;;;;;;;;;;;;;;13.12;67.74;95615.94;4976313;28;1981;-48
2022/05/07 02:20:28;;;;;;;;;;;;;;;13.00;68.32;95626.16;4976238;28;963;-48
2022/05/07 02:22:55;;;;;;;;;;;;;;;12.92;70.02;95620.78;4976228;28;1073;-48
2022/05/07 02:25:22;;;;;;;;;;;;;;;12.90;67.99;95625.47;4975304;28;1156;-48
2022/05/07 02:27:49;;;;;;;;;;;;;;;12.95;67.63;95630.34;4956918;28;1100;-48
2022/05/07 02:30:15;;;;;;;;;;;;;;;13.02;67.19;95621.47;4956622;28;1234;-48
2022/05/07 02:32:41;;;;;;;;;;;;;;;13.07;66.88;95624.50;4956649;29;1033;-48
2022/05/07 02:35:07;;;;;;;;;;;;;;;13.10;67.37;95620.63;4956444;29;1054;-48
2022/05/07 02:37:33;;;;;;;;;;;;;;;13.16;67.10;95619.13;4956504;28;1911;-48
2022/05/07 02:39:59;;;;;;;;;;;;;;;13.08;67.72;95620.78;4956491;28;1021;-48
2022/05/07 02:42:36;;;;;;;;;;;;;;;12.94;68.34;95621.44;4956824;28;993;-48
2022/05/07 02:45:06;;;;;;;;;;;;;;;12.79;68.63;95617.72;4956302;28;1005;-48
2022/05/07 02:47:33;;;;;;;;;;;;;;;12.89;67.91;95619.25;4956455;28;1015;-48
2022/05/07 02:49:59;;;;;;;;;;;;;;;12.89;68.46;95623.78;4956508;28;986;-48
2022/05/07 02:52:25;;;;;;;;;;;;;;;12.82;68.22;95625.44;4956579;28;973;-48
2022/05/07 02:54:51;;;;;;;;;;;;;;;12.85;67.13;95617.06;4956126;29;1101;-48
2022/05/07 02:57:17;;;;;;;;;;;;;;;12.94;66.37;95613.41;4956089;28;1989;-48
2022/05/07 02:59:43;;;;;;;;;;;;;;;12.96;65.96;95622.13;4956393;28;986;-48
2022/05/07 03:02:10;;;;;;;;;;;;;;;12.95;66.18;95623.09;4956412;28;987;-48
2022/05/07 03:04:36;;;;;;;;;;;;;;;12.87;67.15;95625.78;4956257;28;971;-48
2022/05/07 03:07:02;;;;;;;;;;;;;;;12.84;67.30;95620.72;4956331;28;967;-48
2022/05/07 03:09:28;;;;;;;;;;;;;;;12.83;67.48;95627.13;4955910;28;1034;-48
2022/05/07 03:11:54;;;;;;;;;;;;;;;12.75;67.68;95625.25;4956220;29;981;-48
2022/05/07 03:14:21;;;;;;;;;;;;;;;12.68;68.02;95630.41;4956097;29;1034;-48
2022/05/07 03:16:48;;;;;;;;;;;;;;;12.68;68.42;95633.09;4955556;28;963;-48
2022/05/07 03:19:15;;;;;;;;;;;;;;;12.67;68.34;95635.94;4955631;28;1903;-48
2022/05/07 03:21:42;;;;;;;;;;;;;;;12.63;68.18;95637.28;4955734;28;1068;-48
2022/05/07 03:24:09;;;;;;;;;;;;;;;12.64;67.44;95634.44;4955891;28;1016;-48
2022/05/07 03:26:35;;;;;;;;;;;;;;;12.64;67.66;95634.44;4965807;28;1160;-48
2022/05/07 03:29:01;;;;;;;;;;;;;;;12.64;67.66;95630.91;4974716;28;1250;-48
2022/05/07 03:31:27;;;;;;;;;;;;;;;12.60;68.51;95632.25;4974859;28;1002;-48
2022/05/07 03:33:54;;;;;;;;;;;;;;;12.58;68.82;95640.44;4975165;28;1013;-49
2022/05/07 03:36:20;;;;;;;;;;;;;;;12.56;69.24;95637.09;4973677;28;1034;-49
2022/05/07 03:38:46;;;;;;;;;;;;;;;12.57;68.92;95637.91;4975073;28;1910;-49
2022/05/07 03:41:12;;;;;;;;;;;;;;;12.49;69.23;95641.41;4974585;28;1151;-49
2022/05/07 03:43:40;;;;;;;;;;;;;;;12.41;69.57;95644.06;4974691;28;1044;-49
2022/05/07 03:46:06;;;;;;;;;;;;;;;12.41;69.92;95644.91;4974548;28;1072;-49
2022/05/07 03:48:32;;;;;;;;;;;;;;;12.42;70.13;95648.41;4974406;28;1952;-49
2022/05/07 03:50:59;;;;;;;;;;;;;;;12.54;69.09;95657.88;4974744;28;1049;-49
2022/05/07 03:53:31;;;;;;;;;;;;;;;12.66;68.65;95648.53;4974569;28;1049;-49
2022/05/07 03:55:58;;;;;;;;;;;;;;;12.83;68.44;95645.91;4974817;28;977;-49
2022/05/07 03:58:25;;;;;;;;;;;;;;;12.74;69.90;95662.97;4974305;28;1910;-50
2022/05/07 04:00:53;;;;;;;;;;;;;;;12.59;70.79;95654.69;4974343;28;1054;-49
2022/05/07 04:03:19;;;;;;;;;;;;;;;12.64;69.94;95658.56;4974463;28;1029;-49
2022/05/07 04:05:45;;;;;;;;;;;;;;;12.76;68.44;95658.28;4974643;28;1153;-50
2022/05/07 04:08:11;;;;;;;;;;;;;;;12.92;67.62;95658.34;4974462;28;1021;-50
2022/05/07 04:10:37;;;;;;;;;;;;;;;12.95;67.64;95663.38;4974269;28;1131;-50
2022/05/07 04:13:03;;;;;;;;;;;;;;;13.09;67.09;95660.06;4973357;28;1069;-49
2022/05/07 04:15:29;;;;;;;;;;;;;;;13.21;66.37;95657.91;4973088;28;1005;-49
2022/05/07 04:17:55;;;;;;;;;;;;;;;13.26;67.25;95660.94;4974221;28;2263;-50
2022/05/07 04:20:21;;;;;;;;;;;;;;;13.38;65.89;95657.97;4974475;28;959;-50
2022/05/07 04:22:47;;;;;;;;;;;;;;;13.52;66.18;95659.16;4974338;28;1030;-50
2022/05/07 04:25:13;;;;;;;;;;;;;;;13.65;66.23;95664.88;4974660;28;1022;-50
2022/05/07 04:27:39;;;;;;;;;;;;;;;13.74;66.45;95657.66;4955235;28;1183;-48
2022/05/07 04:30:06;;;;;;;;;;;;;;;13.83;64.70;95665.53;4958767;29;1853;-49
2022/05/07 04:32:32;;;;;;;;;;;;;;;13.91;60.50;95659.31;4958845;28;1001;-49
2022/05/07 04:34:58;;;;;;;;;;;;;;;13.95;59.62;95657.97;4959138;28;1005;-48
2022/05/07 04:37:25;;;;;;;;;;;;;;;14.05;59.61;95668.53;4958492;28;1914;-49
2022/05/07 04:39:51;;;;;;;;;;;;;;;14.06;58.16;95662.16;4958800;28;1146;-49
2022/05/07 04:42:17;;;;;;;;;;;;;;;14.12;59.36;95666.03;4958642;28;970;-49
2022/05/07 04:44:43;;;;;;;;;;;;;;;14.16;59.30;95665.50;4958847;28;968;-49
2022/05/07 04:47:09;;;;;;;;;;;;;;;14.22;58.43;95667.50;4958461;28;1037;-49
2022/05/07 04:49:36;;;;;;;;;;;;;;;14.33;59.07;95665.47;4958328;29;1974;-49
2022/05/07 04:52:05;;;;;;;;;;;;;;;14.34;57.55;95667.13;4958353;28;1198;-48
2022/05/07 04:54:32;;;;;;;;;;;;;;;14.39;58.68;95664.78;4958390;28;1078;-48
2022/05/07 04:56:58;;;;;;;;;;;;;;;14.56;58.45;95677.16;4958373;28;1017;-48
2022/05/07 04:59:24;;;;;;;;;;;;;;;14.40;55.83;95671.84;4958191;28;1073;-49
2022/05/07 05:01:50;;;;;;;;;;;;;;;14.24;56.77;95665.47;4958236;28;1093;-48
2022/05/07 05:04:16;;;;;;;;;;;;;;;14.25;56.78;95672.53;4958329;28;1041;-48
2022/05/07 05:06:43;;;;;;;;;;;;;;;14.32;56.44;95671.84;4958264;28;969;-48
2022/05/07 05:09:09;;;;;;;;;;;;;;;14.48;57.74;95679.06;4958600;28;1087;-48
2022/05/07 05:11:37;;;;;;;;;;;;;;;14.61;56.99;95680.22;4957961;29;1060;-48
2022/05/07 05:15:01;;;;;;;;;;;;;;;14.64;56.20;95679.88;4958025;28;977;-48
2022/05/07 05:16:49;;;;;;;;;;;;;;;14.82;56.21;95690.41;4958048;28;1666;-48
2022/05/07 05:19:16;;;;;;;;;;;;;;;14.88;55.35;95685.34;4957874;28;1903;-48
2022/05/07 05:21:42;;;;;;;;;;;;;;;14.88;54.58;95690.72;4956701;29;1093;-50
2022/05/07 05:24:08;;;;;;;;;;;;;;;15.00;55.54;95686.63;4956949;29;951;-51
2022/05/07 05:26:35;;;;;;;;;;;;;;;15.09;55.33;95690.97;4967060;28;1391;-50
2022/05/07 05:29:01;;;;;;;;;;;;;;;15.08;53.05;95689.31;4977330;28;1084;-50
2022/05/07 05:31:28;;;;;;;;;;;;;;;14.85;52.44;95689.22;4977157;28;1041;-51
2022/05/07 05:33:54;;;;;;;;;;;;;;;14.81;54.11;95687.88;4977233;28;1981;-50
2022/05/07 05:36:20;;;;;;;;;;;;;;;14.84;53.59;95684.84;4977296;28;1057;-50
2022/05/07 05:38:46;;;;;;;;;;;;;;;14.90;54.71;95688.69;4976588;28;1994;-50
2022/05/07 05:41:12;;;;;;;;;;;;;;;14.93;54.75;95694.59;4977542;28;974;-50
2022/05/07 05:43:40;;;;;;;;;;;;;;;14.89;54.28;95695.94;4976909;28;1014;-50
2022/05/07 05:46:06;;;;;;;;;;;;;;;14.91;53.99;95693.91;4977217;28;1026;-50
2022/05/07 05:48:32;;;;;;;;;;;;;;;14.93;54.23;95691.88;4976729;28;992;-50
2022/05/07 05:50:59;;;;;;;;;;;;;;;14.89;54.01;95692.41;4977143;28;1121;-50
2022/05/07 05:53:25;;;;;;;;;;;;;;;14.91;54.25;95690.38;4976838;28;1027;-50
2022/05/07 05:55:52;;;;;;;;;;;;;;;14.89;55.39;95689.69;4976881;28;1046;-49
2022/05/07 05:58:18;;;;;;;;;;;;;;;15.06;55.08;95696.69;4976208;28;1989;-50
2022/05/07 06:00:44;;;;;;;;;;;;;;;15.16;54.01;95696.50;4976927;28;1044;-50
2022/05/07 06:03:10;;;;;;;;;;;;;;;15.14;54.28;95685.91;4976503;28;1107;-50
2022/05/07 06:05:37;;;;;;;;;;;;;;;15.15;55.25;95694.81;4976524;28;1949;-51
2022/05/07 06:08:03;;;;;;;;;;;;;;;15.06;54.28;95699.38;4976397;28;1157;-52
2022/05/07 06:10:29;;;;;;;;;;;;;;;15.15;55.16;95702.88;4976391;28;1045;-50
2022/05/07 06:12:55;;;;;;;;;;;;;;;15.26;55.00;95702.50;4976161;28;1080;-49
2022/05/07 06:15:21;;;;;;;;;;;;;;;15.54;54.01;95702.00;4976572;28;1017;-49
2022/05/07 06:17:48;;;;;;;;;;;;;;;15.56;54.16;95703.50;4976281;28;1989;-49
2022/05/07 06:20:14;;;;;;;;;;;;;;;15.63;55.31;95709.00;4976669;28;983;-49
2022/05/07 06:22:40;;;;;;;;;;;;;;;15.65;53.40;95706.97;4976487;28;991;-49
2022/05/07 06:27:51;;;;;;;;;;;;;;;15.71;53.70;95695.47;4956676;29;1364;-47
2022/05/07 06:30:17;;;;;;;;;;;;;;;15.83;53.54;95693.22;4956906;29;975;-47
2022/05/07 06:32:43;;;;;;;;;;;;;;;15.92;52.96;95688.63;4956800;28;1033;-47
2022/05/07 06:35:10;;;;;;;;;;;;;;;16.05;52.23;95688.84;4956636;28;1210;-47
2022/05/07 06:37:37;;;;;;;;;;;;;;;16.17;51.72;95689.22;4956434;28;1985;-48
2022/05/07 06:40:04;;;;;;;;;;;;;;;16.42;52.90;95695.22;4956465;28;1042;-48
2022/05/07 06:42:30;;;;;;;;;;;;;;;16.51;50.49;95693.28;4956400;28;1054;-48
2022/05/07 06:44:56;;;;;;;;;;;;;;;16.71;51.06;95690.88;4956524;28;971;-47
2022/05/07 06:47:22;;;;;;;;;;;;;;;17.02;50.90;95692.59;4956498;28;1014;-47
2022/05/07 06:49:48;;;;;;;;;;;;;;;17.05;49.54;95686.78;4956536;29;1038;-47
2022/05/07 06:52:14;;;;;;;;;;;;;;;17.58;49.33;95692.00;4955608;29;970;-47
2022/05/07 06:54:40;;;;;;;;;;;;;;;18.12;48.12;95689.63;4956307;28;1033;-47
2022/05/07 06:57:08;;;;;;;;;;;;;;;18.73;48.15;95691.75;4956548;28;1988;-47
2022/05/07 06:59:34;;;;;;;;;;;;;;;19.02;44.30;95695.28;4956307;28;1671;-48
2022/05/07 07:02:00;;;;;;;;;;;;;;;19.32;46.40;95692.28;4956237;28;1034;-47
2022/05/07 07:04:26;;;;;;;;;;;;;;;19.44;43.41;95689.81;4955854;29;1024;-48
2022/05/07 07:06:53;;;;;;;;;;;;;;;19.84;44.29;95687.25;4956173;28;1028;-47
2022/05/07 07:09:19;;;;;;;;;;;;;;;20.17;43.89;95681.03;4956110;28;977;-47
2022/05/07 07:11:45;;;;;;;;;;;;;;;20.47;43.15;95685.00;4956165;28;1055;-47
2022/05/07 07:14:12;;;;;;;;;;;;;;;20.62;44.12;95683.97;4956103;28;1190;-47
2022/05/07 07:16:38;;;;;;;;;;;;;;;20.44;43.95;95681.88;4955847;28;1108;-47
2022/05/07 07:19:04;;;;;;;;;;;;;;;20.61;43.56;95680.41;4955834;28;1910;-48
2022/05/07 07:21:30;;;;;;;;;;;;;;;20.47;41.84;95678.75;4955743;29;1032;-48
2022/05/07 07:23:57;;;;;;;;;;;;;;;20.40;42.00;95681.44;4955951;28;958;-48
2022/05/07 07:26:23;;;;;;;;;;;;;;;20.29;42.29;95676.66;4964329;28;1196;-47
2022/05/07 07:28:49;;;;;;;;;;;;;;;20.18;42.62;95674.56;4974799;28;1234;-47
2022/05/07 07:31:16;;;;;;;;;;;;;;;19.96;44.38;95682.91;4975096;28;926;-48
2022/05/07 07:33:42;;;;;;;;;;;;;;;20.07;43.67;95665.16;4974957;28;1049;-47
2022/05/07 07:36:09;;;;;;;;;;;;;;;20.14;42.92;95670.59;4974678;28;1958;-47
2022/05/07 07:38:37;;;;;;;;;;;;;;;20.04;44.72;95671.84;4974847;28;1910;-48
2022/05/07 07:41:03;;;;;;;;;;;;;;;19.98;43.45;95664.53;4974753;28;977;-47
2022/05/07 07:43:29;;;;;;;;;;;;;;;20.04;42.44;95681.88;4974947;28;1033;-47
2022/05/07 07:48:41;;;;;;;;;;;;;;;20.34;44.33;95662.47;4974423;28;978;-47
2022/05/07 07:51:07;;;;;;;;;;;;;;;20.74;43.48;95667.88;4974849;28;1022;-47
2022/05/07 07:53:34;;;;;;;;;;;;;;;21.18;43.56;95677.97;4974851;28;1028;-47
2022/05/07 07:56:00;;;;;;;;;;;;;;;21.22;42.73;95665.63;4974712;28;956;-47
2022/05/07 07:58:26;;;;;;;;;;;;;;;21.20;42.80;95667.72;4974467;28;2021;-47
2022/05/07 08:00:52;;;;;;;;;;;;;;;21.02;41.98;95670.31;4974523;28;1050;-47
2022/05/07 08:03:19;;;;;;;;;;;;;;;20.89;42.72;95673.03;4974318;28;1005;-47
2022/05/07 08:05:47;;;;;;;;;;;;;;;20.99;42.53;95677.00;4974738;28;1031;-47
2022/05/07 08:13:44;;;;;;;;;;;;;;;21.62;43.76;95675.53;4974308;28;1033;-47
2022/05/07 08:16:11;;;;;;;;;;;;;;;21.77;42.70;95673.34;4974561;28;1046;-47
2022/05/07 08:18:37;;;;;;;;;;;;;;;21.70;43.63;95668.97;4974294;28;1918;-47
2022/05/07 08:21:05;;;;;;;;;;;;;;;21.57;42.22;95669.88;4974441;28;1009;-47
2022/05/07 08:23:31;;;;;;;;;;;;;;;21.38;43.05;95672.47;4974475;28;1027;-47
2022/05/07 08:25:58;;;;;;;;;;;;;;;21.55;43.24;95670.13;4969009;28;1168;-47
2022/05/07 08:28:24;;;;;;;;;;;;;;;21.92;43.30;95669.50;4954745;28;1199;-47
2022/05/07 08:30:51;;;;;;;;;;;;;;;21.73;43.31;95663.13;4955033;28;1021;-47
2022/05/07 08:33:19;;;;;;;;;;;;;;;21.66;44.28;95665.88;4954851;28;1010;-47
2022/05/07 08:35:46;;;;;;;;;;;;;;;21.40;44.13;95653.22;4955085;29;1018;-47
2022/05/07 08:38:12;;;;;;;;;;;;;;;21.13;44.03;95661.47;4954843;28;1911;-49
2022/05/07 08:40:40;;;;;;;;;;;;;;;20.99;44.13;95657.97;4954838;28;956;-47
2022/05/07 08:43:06;;;;;;;;;;;;;;;21.40;44.18;95656.78;4954906;28;1008;-47
2022/05/07 08:45:34;;;;;;;;;;;;;;;22.08;43.46;95657.22;4953773;29;985;-47
2022/05/07 08:48:00;;;;;;;;;;;;;;;22.36;41.67;95652.19;4954917;28;961;-47
2022/05/07 08:50:26;;;;;;;;;;;;;;;22.30;42.78;95646.81;4954928;28;1048;-47
2022/05/07 08:52:53;;;;;;;;;;;;;;;22.70;41.67;95657.34;4954908;29;1059;-47
2022/05/07 08:55:20;;;;;;;;;;;;;;;22.72;42.61;95647.88;4954543;28;911;-47
2022/05/07 08:57:47;;;;;;;;;;;;;;;22.69;41.52;95651.06;4954624;28;1903;-47
2022/05/07 09:00:15;;;;;;;;;;;;;;;22.58;41.76;95644.47;4954935;28;951;-47
2022/05/07 09:02:45;;;;;;;;;;;;;;;22.73;42.35;95651.47;4954711;28;1026;-47
2022/05/07 09:05:12;;;;;;;;;;;;;;;23.03;41.52;95646.13;4955029;28;1008;-47
2022/05/07 09:07:41;;;;;;;;;;;;;;;23.35;41.27;95644.06;4954459;28;1014;-47
2022/05/07 09:10:13;;;;;;;;;;;;;;;23.39;40.47;95639.81;4954452;28;1846;-47
2022/05/07 09:12:40;;;;;;;;;;;;;;;23.24;40.91;95636.66;4954986;28;1054;-47
2022/05/07 09:15:07;;;;;;;;;;;;;;;23.12;40.58;95633.00;4957143;28;1189;-48
2022/05/07 09:17:33;;;;;;;;;;;;;;;23.19;39.96;95629.13;4957644;28;1910;-47
2022/05/07 09:20:15;;;;;;;;;;;;;;;22.70;38.89;95621.91;4958010;28;1029;-47
2022/05/07 09:22:49;;;;;;;;;;;;;;;22.41;39.76;95619.69;4957829;28;966;-47
2022/05/07 09:25:20;;;;;;;;;;;;;;;22.86;41.64;95624.06;4957868;28;1089;-47
2022/05/07 09:27:51;;;;;;;;;;;;;;;23.34;39.49;95614.28;4976891;28;1258;-47
2022/05/07 09:30:24;;;;;;;;;;;;;;;23.32;38.63;95605.50;4977235;28;1065;-48
2022/05/07 09:32:54;;;;;;;;;;;;;;;23.52;38.89;95595.16;4977604;28;1024;-47
2022/05/07 09:38:08;;;;;;;;;;;;;;;23.43;36.87;95601.13;4976884;28;1903;-47
2022/05/07 09:40:39;;;;;;;;;;;;;;;23.59;37.81;95597.78;4976835;28;1014;-48
2022/05/07 09:43:05;;;;;;;;;;;;;;;23.64;36.81;95587.00;4976906;28;1040;-48
2022/05/07 09:45:32;;;;;;;;;;;;;;;23.59;38.13;95586.84;4976931;28;1058;-47
2022/05/07 09:47:58;;;;;;;;;;;;;;;23.36;36.96;95585.69;4976552;28;1860;-47
2022/05/07 09:50:43;;;;;;;;;;;;;;;22.92;38.13;95584.16;4977126;28;965;-47
2022/05/07 09:58:41;;;;;;;;;;;;;;;22.64;36.46;95571.88;4976738;28;1914;-47
2022/05/07 10:01:10;;;;;;;;;;;;;;;22.68;37.26;95577.72;4976907;28;927;-47
2022/05/07 10:03:42;;;;;;;;;;;;;;;22.97;36.89;95576.09;4976652;28;972;-47
2022/05/07 10:06:30;;;;;;;;;;;;;;;22.90;36.31;95578.09;4976660;28;938;-47
2022/05/07 10:09:02;;;;;;;;;;;;;;;22.88;36.22;95572.00;4976541;28;1037;-47
2022/05/07 10:11:29;;;;;;;;;;;;;;;23.02;36.27;95572.69;4976209;28;1034;-47
2022/05/07 10:13:55;;;;;;;;;;;;;;;22.71;37.38;95574.50;4976748;28;1042;-47
2022/05/07 10:16:23;;;;;;;;;;;;;;;22.47;37.41;95568.91;4976465;28;1026;-47
2022/05/07 10:18:49;;;;;;;;;;;;;;;22.46;36.45;95572.72;4976088;28;1911;-47
2022/05/07 10:21:18;;;;;;;;;;;;;;;22.67;37.55;95565.97;4976301;28;978;-47
2022/05/07 10:23:55;;;;;;;;;;;;;;;23.13;37.64;95553.69;4976288;28;990;-47
2022/05/07 10:26:36;;;;;;;;;;;;;;;23.08;36.29;95559.00;4966732;28;1159;-47
2022/05/07 10:29:03;;;;;;;;;;;;;;;22.57;37.06;95549.31;4956744;28;1368;-47
2022/05/07 10:31:29;;;;;;;;;;;;;;;22.73;36.23;95545.97;4956881;28;1014;-47
2022/05/07 10:33:56;;;;;;;;;;;;;;;22.86;37.90;95547.72;4956573;29;975;-47
2022/05/07 10:36:32;;;;;;;;;;;;;;;22.90;38.02;95548.94;4956699;28;1076;-48
2022/05/07 10:39:05;;;;;;;;;;;;;;;22.98;37.58;95545.88;4956615;28;1914;-47
2022/05/07 10:41:32;;;;;;;;;;;;;;;23.00;37.28;95538.31;4956738;28;985;-47
2022/05/07 10:44:03;;;;;;;;;;;;;;;23.31;37.48;95533.72;4956719;28;975;-47
2022/05/07 10:46:40;;;;;;;;;;;;;;;23.34;37.65;95521.53;4956423;28;1009;-47
2022/05/07 10:49:06;;;;;;;;;;;;;;;23.43;37.67;95524.72;4956383;28;972;-48
2022/05/07 10:51:32;;;;;;;;;;;;;;;23.41;36.29;95516.81;4956749;28;1032;-47
2022/05/07 10:54:08;;;;;;;;;;;;;;;23.14;36.69;95519.88;4956264;29;1042;-47
2022/05/07 10:56:34;;;;;;;;;;;;;;;23.18;37.49;95512.94;4956617;28;960;-47
2022/05/07 10:59:01;;;;;;;;;;;;;;;23.28;36.93;95512.38;4956257;28;1910;-47
2022/05/07 11:01:28;;;;;;;;;;;;;;;23.16;37.25;95504.16;4956542;28;1005;-47
2022/05/07 11:04:04;;;;;;;;;;;;;;;23.16;36.87;95506.88;4956221;28;1005;-47
2022/05/07 11:06:44;;;;;;;;;;;;;;;22.91;37.17;95501.50;4956247;28;1000;-47
2022/05/07 11:09:14;;;;;;;;;;;;;;;22.96;37.99;95496.19;4955940;28;1050;-47
2022/05/07 11:11:44;;;;;;;;;;;;;;;22.96;37.81;95493.47;4956264;28;1020;-48
2022/05/07 11:14:11;;;;;;;;;;;;;;;22.88;37.50;95487.50;4956200;28;1039;-47
2022/05/07 11:16:43;;;;;;;;;;;;;;;22.94;37.59;95490.16;4956107;28;959;-47
2022/05/07 11:19:09;;;;;;;;;;;;;;;22.85;38.32;95482.53;4955697;28;1911;-47
2022/05/07 11:21:38;;;;;;;;;;;;;;;22.94;37.32;95489.31;4956100;28;1039;-47
2022/05/07 11:24:05;;;;;;;;;;;;;;;22.76;36.36;95474.63;4955512;28;1069;-47
2022/05/07 11:26:31;;;;;;;;;;;;;;;22.72;37.95;95476.16;4965475;28;1218;-47
2022/05/07 11:28:57;;;;;;;;;;;;;;;22.66;37.65;95481.72;4974870;28;1084;-47
2022/05/07 11:31:28;;;;;;;;;;;;;;;22.73;37.54;95482.47;4974930;28;1081;-47
2022/05/07 11:34:10;;;;;;;;;;;;;;;22.63;35.48;95477.53;4975117;28;997;-47
2022/05/07 11:36:36;;;;;;;;;;;;;;;22.40;36.52;95483.69;4974788;28;968;-48
2022/05/07 11:39:04;;;;;;;;;;;;;;;22.54;38.66;95463.41;4974918;28;1906;-47
2022/05/07 11:41:30;;;;;;;;;;;;;;;22.74;37.74;95473.22;4975077;28;1214;-48
2022/05/07 11:46:51;;;;;;;;;;;;;;;22.98;36.52;95463.25;4975322;28;1022;-47
2022/05/07 11:49:46;;;;;;;;;;;;;;;23.08;36.05;95457.28;4974660;28;958;-47
2022/05/07 11:52:12;;;;;;;;;;;;;;;23.08;36.17;95446.38;4970184;28;1316;-48
2022/05/07 11:54:52;;;;;;;;;;;;;;;23.09;36.29;95448.88;4974310;28;1005;-47
2022/05/07 11:57:31;;;;;;;;;;;;;;;22.74;36.30;95454.97;4974539;28;1915;-47
2022/05/07 11:59:57;;;;;;;;;;;;;;;22.84;36.51;95448.13;4974458;28;1014;-47
2022/05/07 12:02:23;;;;;;;;;;;;;;;22.99;36.60;95443.09;4974546;28;1076;-47
2022/05/07 12:04:56;;;;;;;;;;;;;;;23.14;36.90;95446.25;4974441;28;1108;-48
2022/05/07 12:07:22;;;;;;;;;;;;;;;23.23;37.11;95435.03;4973288;28;1085;-47
2022/05/07 12:09:48;;;;;;;;;;;;;;;23.11;35.74;95435.81;4974348;28;971;-47
2022/05/07 12:12:14;;;;;;;;;;;;;;;23.31;35.68;95423.78;4974514;28;997;-47
2022/05/07 12:14:40;;;;;;;;;;;;;;;23.25;36.01;95430.16;4974541;28;982;-47
2022/05/07 12:19:51;;;;;;;;;;;;;;;23.27;35.32;95408.94;4974298;28;1034;-47
2022/05/07 12:30:32;;;;;;;;;;;;;;;23.15;35.17;95409.75;4954924;29;1013;-47
2022/05/07 12:32:58;;;;;;;;;;;;;;;23.09;35.47;95398.97;4955029;28;983;-47
2022/05/07 12:35:24;;;;;;;;;;;;;;;23.15;36.08;95407.03;4955052;28;1350;-47
2022/05/07 12:37:50;;;;;;;;;;;;;;;23.20;34.92;95398.13;4955153;28;1918;-47
2022/05/07 12:40:16;;;;;;;;;;;;;;;23.19;35.43;95399.19;4955089;29;1005;-47
2022/05/07 12:42:42;;;;;;;;;;;;;;;23.29;36.71;95394.00;4953894;29;1015;-47
2022/05/07 12:45:09;;;;;;;;;;;;;;;23.25;35.53;95383.78;4954879;29;1096;-47
2022/05/07 12:47:35;;;;;;;;;;;;;;;23.07;34.45;95391.00;4954616;28;1974;-47
2022/05/07 12:50:01;;;;;;;;;;;;;;;22.72;35.46;95382.69;4957258;28;1050;-47
2022/05/07 12:52:27;;;;;;;;;;;;;;;22.78;35.07;95385.31;4958470;28;1033;-50
2022/05/07 12:54:53;;;;;;;;;;;;;;;22.77;35.78;95382.81;4958509;28;954;-48
2022/05/07 12:57:19;;;;;;;;;;;;;;;22.83;34.75;95381.88;4958526;28;1911;-47
2022/05/07 12:59:45;;;;;;;;;;;;;;;22.87;35.68;95371.34;4958588;28;969;-47
2022/05/07 13:02:12;;;;;;;;;;;;;;;22.92;35.74;95375.03;4958781;28;1179;-47
2022/05/07 13:04:38;;;;;;;;;;;;;;;22.95;34.87;95374.56;4958392;28;1033;-48
2022/05/07 13:07:04;;;;;;;;;;;;;;;23.00;35.00;95374.69;4958376;28;1034;-48
2022/05/07 13:09:31;;;;;;;;;;;;;;;22.95;34.37;95368.28;4958098;28;1017;-47
2022/05/07 13:11:57;;;;;;;;;;;;;;;22.97;35.02;95361.56;4958481;28;1043;-47
2022/05/07 13:14:24;;;;;;;;;;;;;;;23.07;35.19;95352.81;4958415;28;972;-48
2022/05/07 13:16:50;;;;;;;;;;;;;;;22.95;34.13;95362.84;4958478;28;1026;-48
2022/05/07 13:19:16;;;;;;;;;;;;;;;22.64;34.67;95359.31;4957696;28;1903;-47
2022/05/07 13:21:43;;;;;;;;;;;;;;;22.73;35.45;95355.19;4958453;28;981;-48
2022/05/07 13:24:14;;;;;;;;;;;;;;;22.83;34.89;95351.91;4957882;28;1004;-48
2022/05/07 13:30:02;;;;;;;;;;;;;;;23.23;35.20;95347.75;4833628;28;2038;-48
2022/05/07 13:32:29;;;;;;;;;;;;;;;23.26;34.33;95344.53;4977192;28;1048;-48
2022/05/07 13:34:55;;;;;;;;;;;;;;;23.37;34.44;95343.72;4977347;28;989;-48
2022/05/07 13:37:21;;;;;;;;;;;;;;;23.33;35.19;95337.88;4976849;28;1993;-47